Time;durP1;ratioP1;P1;durP2;ratioP2;P2;SDS_P1;SDS_P2;PMS_P1;PMS_P2;Temp;Humidity;BMP_temperature;BMP_pressure;BME280_temperature;BME280_humidity;BME280_pressure;Samples;Min_cycle;Max_cycle;Signal;HPM_P1;HPM_P2
2023/12/23 00:01:04;;;;;;;6.00;0.20;;;;;;;;;;4978733;28;20158;-72
2023/12/23 00:03:30;;;;;;;0.52;0.30;;;;;;;;;;4990271;28;20045;-72
2023/12/23 00:05:56;;;;;;;0.00;0.00;;;;;;;;;;4986170;28;20128;-72
2023/12/23 00:08:22;;;;;;;0.00;0.00;;;;;;;;;;4979283;28;20041;-72
2023/12/23 00:10:48;;;;;;;0.00;0.00;;;;;;;;;;4987513;28;20038;-72
2023/12/23 00:13:14;;;;;;;0.00;0.00;;;;;;;;;;4981842;28;20048;-72
2023/12/23 00:15:40;;;;;;;0.00;0.00;;;;;;;;;;4971938;28;20137;-67
2023/12/23 00:18:06;;;;;;;0.08;0.05;;;;;;;;;;4971742;28;20031;-69
2023/12/23 00:20:32;;;;;;;0.00;0.00;;;;;;;;;;4980690;28;20125;-67
2023/12/23 00:22:59;;;;;;;0.00;0.00;;;;;;;;;;4981157;28;20045;-68
2023/12/23 00:25:25;;;;;;;0.32;0.10;;;;;;;;;;4979057;28;20133;-69
2023/12/23 00:27:51;;;;;;;0.00;0.00;;;;;;;;;;4979957;28;20035;-68
2023/12/23 00:30:17;;;;;;;0.68;0.08;;;;;;;;;;4977785;28;20526;-69
2023/12/23 00:32:45;;;;;;;0.00;0.00;;;;;;;;;;4989143;28;20038;-69
2023/12/23 00:35:11;;;;;;;0.00;0.00;;;;;;;;;;4983127;28;20032;-68
2023/12/23 00:37:37;;;;;;;0.88;0.38;;;;;;;;;;4986368;28;20157;-69
2023/12/23 00:40:03;;;;;;;0.17;0.17;;;;;;;;;;4974153;28;20622;-68
2023/12/23 00:42:29;;;;;;;0.00;0.00;;;;;;;;;;4967233;28;20182;-68
2023/12/23 00:44:55;;;;;;;0.55;0.45;;;;;;;;;;4966736;28;20049;-69
2023/12/23 00:47:21;;;;;;;2.55;0.25;;;;;;;;;;4966010;28;20051;-68
2023/12/23 00:49:47;;;;;;;0.30;0.03;;;;;;;;;;4968492;28;20098;-68
2023/12/23 00:52:13;;;;;;;0.10;0.00;;;;;;;;;;4969520;28;20031;-68
2023/12/23 00:54:39;;;;;;;1.92;0.40;;;;;;;;;;4969463;28;20038;-68
2023/12/23 00:57:05;;;;;;;0.00;0.00;;;;;;;;;;4964634;28;20047;-68
2023/12/23 00:59:31;;;;;;;0.00;0.00;;;;;;;;;;4968184;28;20089;-69
2023/12/23 01:01:57;;;;;;;0.00;0.00;;;;;;;;;;4963573;28;20451;-69
2023/12/23 01:04:23;;;;;;;0.17;0.15;;;;;;;;;;4987050;28;20101;-67
2023/12/23 01:06:50;;;;;;;10.85;0.47;;;;;;;;;;4983199;28;20038;-69
2023/12/23 01:09:16;;;;;;;0.00;0.00;;;;;;;;;;4976837;28;20522;-68
2023/12/23 01:11:42;;;;;;;0.00;0.00;;;;;;;;;;4975814;28;20042;-68
2023/12/23 01:14:08;;;;;;;0.00;0.00;;;;;;;;;;4977702;28;20057;-68
2023/12/23 01:16:34;;;;;;;0.00;0.00;;;;;;;;;;4979688;28;20070;-69
2023/12/23 01:19:00;;;;;;;0.00;0.00;;;;;;;;;;4972665;28;20049;-68
2023/12/23 01:21:26;;;;;;;0.00;0.00;;;;;;;;;;4973417;28;20852;-68
2023/12/23 01:23:52;;;;;;;0.00;0.00;;;;;;;;;;4974581;28;20038;-68
2023/12/23 01:26:18;;;;;;;0.00;0.00;;;;;;;;;;4985516;28;20506;-72
2023/12/23 01:28:44;;;;;;;0.00;0.00;;;;;;;;;;4988619;28;20141;-72
2023/12/23 01:31:10;;;;;;;0.00;0.00;;;;;;;;;;4991651;28;20064;-72
2023/12/23 01:33:35;;;;;;;0.30;0.30;;;;;;;;;;4983852;28;20035;-73
2023/12/23 01:36:05;;;;;;;0.00;0.00;;;;;;;;;;4984083;28;20323;-73
2023/12/23 01:38:31;;;;;;;0.00;0.00;;;;;;;;;;4973225;28;20287;-73
2023/12/23 01:40:57;;;;;;;0.00;0.00;;;;;;;;;;4981714;28;20046;-73
2023/12/23 01:43:23;;;;;;;0.00;0.00;;;;;;;;;;4988892;28;20034;-72
2023/12/23 01:45:49;;;;;;;0.00;0.00;;;;;;;;;;4987647;28;20038;-72
2023/12/23 01:48:15;;;;;;;0.00;0.00;;;;;;;;;;4984487;28;20058;-72
2023/12/23 01:50:41;;;;;;;0.00;0.00;;;;;;;;;;4986622;28;20030;-72
2023/12/23 01:53:07;;;;;;;0.00;0.00;;;;;;;;;;4989944;28;20137;-73
2023/12/23 01:55:34;;;;;;;0.10;0.10;;;;;;;;;;4987070;28;20045;-69
2023/12/23 01:58:00;;;;;;;0.10;0.10;;;;;;;;;;4989829;28;20058;-68
2023/12/23 02:00:26;;;;;;;0.00;0.00;;;;;;;;;;4969802;28;20755;-68
2023/12/23 02:02:52;;;;;;;0.38;0.20;;;;;;;;;;4987949;28;20097;-68
2023/12/23 02:05:18;;;;;;;0.00;0.00;;;;;;;;;;4988099;28;20038;-68
2023/12/23 02:07:45;;;;;;;0.20;0.20;;;;;;;;;;4980768;28;20039;-69
2023/12/23 02:10:12;;;;;;;0.68;0.10;;;;;;;;;;4987974;28;20031;-68
2023/12/23 02:12:56;;;;;;;0.00;0.00;;;;;;;;;;4990038;28;20033;-70
2023/12/23 02:15:23;;;;;;;0.50;0.50;;;;;;;;;;4985667;28;20029;-69
2023/12/23 02:17:57;;;;;;;0.00;0.00;;;;;;;;;;4989437;28;20461;-70
2023/12/23 02:20:23;;;;;;;0.00;0.00;;;;;;;;;;4985702;28;20117;-68
2023/12/23 02:22:49;;;;;;;0.00;0.00;;;;;;;;;;4988334;28;20638;-68
2023/12/23 02:25:15;;;;;;;0.00;0.00;;;;;;;;;;4982658;28;20038;-69
2023/12/23 02:27:45;;;;;;;0.00;0.00;;;;;;;;;;4989409;28;20041;-68
2023/12/23 02:30:12;;;;;;;0.05;0.05;;;;;;;;;;4983086;28;20038;-70
2023/12/23 02:32:40;;;;;;;0.00;0.00;;;;;;;;;;4989250;28;20039;-68
2023/12/23 02:35:06;;;;;;;0.00;0.00;;;;;;;;;;4986433;28;20084;-70
2023/12/23 02:37:32;;;;;;;0.00;0.00;;;;;;;;;;4985867;28;21335;-68
2023/12/23 02:39:59;;;;;;;0.00;0.00;;;;;;;;;;4983021;28;20042;-68
2023/12/23 02:42:25;;;;;;;0.00;0.00;;;;;;;;;;4987094;28;20358;-69
2023/12/23 02:44:51;;;;;;;0.00;0.00;;;;;;;;;;4991094;28;20030;-68
2023/12/23 02:47:17;;;;;;;0.00;0.00;;;;;;;;;;4986889;28;20473;-69
2023/12/23 02:49:43;;;;;;;0.00;0.00;;;;;;;;;;4980504;28;20449;-68
2023/12/23 02:52:09;;;;;;;0.00;0.00;;;;;;;;;;4981697;28;20401;-68
2023/12/23 02:54:35;;;;;;;0.00;0.00;;;;;;;;;;4986755;28;20030;-69
2023/12/23 02:57:01;;;;;;;0.00;0.00;;;;;;;;;;4981888;28;20474;-70
2023/12/23 02:59:26;;;;;;;0.00;0.00;;;;;;;;;;4984129;28;20092;-68
2023/12/23 03:01:53;;;;;;;1.75;0.68;;;;;;;;;;4985632;28;20042;-68
2023/12/23 03:04:19;;;;;;;0.00;0.00;;;;;;;;;;4987130;28;20453;-68
2023/12/23 03:06:45;;;;;;;0.00;0.00;;;;;;;;;;4981187;28;20040;-70
2023/12/23 03:09:11;;;;;;;0.00;0.00;;;;;;;;;;4977736;28;20051;-69
2023/12/23 03:11:37;;;;;;;0.00;0.00;;;;;;;;;;4980690;28;20045;-68
2023/12/23 03:14:04;;;;;;;0.38;0.32;;;;;;;;;;4982769;28;20054;-69
2023/12/23 03:16:33;;;;;;;0.00;0.00;;;;;;;;;;4985361;28;20375;-69
2023/12/23 03:19:03;;;;;;;0.00;0.00;;;;;;;;;;4978512;28;20035;-68
2023/12/23 03:21:29;;;;;;;0.10;0.10;;;;;;;;;;4988918;28;20046;-68
2023/12/23 03:23:55;;;;;;;0.00;0.00;;;;;;;;;;4982276;28;20793;-69
2023/12/23 03:26:21;;;;;;;0.10;0.10;;;;;;;;;;4974596;28;20186;-68
2023/12/23 03:28:47;;;;;;;1.10;1.10;;;;;;;;;;4984617;28;20651;-69
2023/12/23 03:31:13;;;;;;;0.30;0.13;;;;;;;;;;4997172;28;20397;-67
2023/12/23 03:33:42;;;;;;;0.00;0.00;;;;;;;;;;4994020;28;20684;-69
2023/12/23 03:36:08;;;;;;;0.85;0.32;;;;;;;;;;4986789;28;20048;-68
2023/12/23 03:38:34;;;;;;;2.45;0.75;;;;;;;;;;4981922;28;20038;-68
2023/12/23 03:41:00;;;;;;;0.47;0.43;;;;;;;;;;4978961;28;20046;-68
2023/12/23 03:43:26;;;;;;;10.75;1.13;;;;;;;;;;4981710;28;20030;-69
2023/12/23 03:45:52;;;;;;;1.95;0.82;;;;;;;;;;4976321;28;20428;-69
2023/12/23 03:48:18;;;;;;;1.65;1.00;;;;;;;;;;4981210;28;20068;-68
2023/12/23 03:50:44;;;;;;;0.28;0.13;;;;;;;;;;4981286;28;20031;-69
2023/12/23 03:53:10;;;;;;;3.30;1.50;;;;;;;;;;4991511;28;20042;-68
2023/12/23 03:55:38;;;;;;;1.23;1.10;;;;;;;;;;4981413;28;20041;-68
2023/12/23 03:58:04;;;;;;;2.20;0.57;;;;;;;;;;4981297;28;20045;-68
2023/12/23 04:00:30;;;;;;;5.15;1.70;;;;;;;;;;4979743;28;20593;-68
2023/12/23 04:02:57;;;;;;;0.20;0.05;;;;;;;;;;4975855;28;20485;-67
2023/12/23 04:05:23;;;;;;;3.85;1.55;;;;;;;;;;4977072;28;20034;-67
2023/12/23 04:07:50;;;;;;;0.38;0.38;;;;;;;;;;4981059;28;20625;-67
2023/12/23 04:10:16;;;;;;;1.08;0.55;;;;;;;;;;4981073;28;20047;-68
2023/12/23 04:12:42;;;;;;;4.38;2.22;;;;;;;;;;4963138;28;20392;-69
2023/12/23 04:15:08;;;;;;;0.55;0.40;;;;;;;;;;4970909;28;20037;-73
2023/12/23 04:17:34;;;;;;;0.35;0.15;;;;;;;;;;4968105;28;20141;-72
2023/12/23 04:20:00;;;;;;;8.32;1.55;;;;;;;;;;4979530;28;20101;-71
2023/12/23 04:22:26;;;;;;;2.53;1.95;;;;;;;;;;4980222;28;20045;-71
2023/12/23 04:24:53;;;;;;;0.15;0.08;;;;;;;;;;4979856;28;20038;-72
2023/12/23 04:27:19;;;;;;;1.95;0.77;;;;;;;;;;4981775;28;20070;-72
2023/12/23 04:29:45;;;;;;;1.40;0.80;;;;;;;;;;4982264;28;20830;-71
2023/12/23 04:32:11;;;;;;;1.40;0.77;;;;;;;;;;4980079;28;20073;-72
2023/12/23 04:34:37;;;;;;;6.70;2.67;;;;;;;;;;4984784;28;20473;-72
2023/12/23 04:37:04;;;;;;;0.20;0.20;;;;;;;;;;4982168;28;20050;-72
2023/12/23 04:39:30;;;;;;;4.65;1.42;;;;;;;;;;4984516;28;20498;-72
2023/12/23 04:41:56;;;;;;;0.20;0.20;;;;;;;;;;4984972;28;20038;-72
2023/12/23 04:44:22;;;;;;;0.68;0.57;;;;;;;;;;4990701;28;20034;-72
2023/12/23 04:46:48;;;;;;;1.00;0.60;;;;;;;;;;4984377;28;20050;-72
2023/12/23 04:49:14;;;;;;;1.17;0.98;;;;;;;;;;4980325;28;20138;-73
2023/12/23 04:51:43;;;;;;;0.30;0.30;;;;;;;;;;4982605;28;20494;-72
2023/12/23 04:54:10;;;;;;;6.05;3.25;;;;;;;;;;4983017;28;20082;-72
2023/12/23 04:56:36;;;;;;;17.52;5.07;;;;;;;;;;4980490;28;20109;-69
2023/12/23 04:59:02;;;;;;;0.38;0.38;;;;;;;;;;4980714;28;20042;-69
2023/12/23 05:01:28;;;;;;;3.58;1.15;;;;;;;;;;4976085;28;20300;-69
2023/12/23 05:03:54;;;;;;;5.43;1.95;;;;;;;;;;4980980;28;20486;-68
2023/12/23 05:06:20;;;;;;;2.28;1.30;;;;;;;;;;4982537;28;20034;-68
2023/12/23 05:08:46;;;;;;;6.32;0.75;;;;;;;;;;4981927;28;20045;-68
2023/12/23 05:11:12;;;;;;;1.85;0.90;;;;;;;;;;4971366;28;20042;-69
2023/12/23 05:13:38;;;;;;;1.95;0.75;;;;;;;;;;4977737;28;20058;-68
2023/12/23 05:16:04;;;;;;;0.43;0.32;;;;;;;;;;4981864;28;20043;-69
2023/12/23 05:18:30;;;;;;;3.47;1.05;;;;;;;;;;4982617;28;20045;-68
2023/12/23 05:20:56;;;;;;;2.00;1.45;;;;;;;;;;4982520;28;20031;-68
2023/12/23 05:23:22;;;;;;;1.25;1.10;;;;;;;;;;4991055;28;20050;-69
2023/12/23 05:25:48;;;;;;;2.33;1.35;;;;;;;;;;4989260;28;20085;-69
2023/12/23 05:28:14;;;;;;;1.20;1.00;;;;;;;;;;4987130;28;20027;-67
2023/12/23 05:30:40;;;;;;;5.30;1.88;;;;;;;;;;4982489;28;20133;-67
2023/12/23 05:33:06;;;;;;;3.45;2.25;;;;;;;;;;4987689;28;20113;-69
2023/12/23 05:35:32;;;;;;;4.07;0.95;;;;;;;;;;4985535;28;20486;-68
2023/12/23 05:37:58;;;;;;;0.70;0.55;;;;;;;;;;4988239;28;20057;-68
2023/12/23 05:40:24;;;;;;;2.00;1.13;;;;;;;;;;4985070;28;20038;-67
2023/12/23 05:42:49;;;;;;;4.53;0.95;;;;;;;;;;4985731;28;20777;-69
2023/12/23 05:45:15;;;;;;;1.10;0.65;;;;;;;;;;4985915;28;20030;-68
2023/12/23 05:47:43;;;;;;;11.07;2.92;;;;;;;;;;4987734;28;20429;-68
2023/12/23 05:50:10;;;;;;;0.80;0.28;;;;;;;;;;4993736;28;20485;-68
2023/12/23 05:52:36;;;;;;;6.82;2.75;;;;;;;;;;4989391;28;20038;-68
2023/12/23 05:55:02;;;;;;;1.48;1.08;;;;;;;;;;4989100;28;20042;-68
2023/12/23 05:57:28;;;;;;;5.95;1.38;;;;;;;;;;4993850;28;20046;-68
2023/12/23 05:59:54;;;;;;;3.45;1.15;;;;;;;;;;4993042;28;20133;-68
2023/12/23 06:02:20;;;;;;;1.23;1.10;;;;;;;;;;4989562;28;20709;-68
2023/12/23 06:04:46;;;;;;;2.67;1.25;;;;;;;;;;4986623;28;20030;-68
2023/12/23 06:07:13;;;;;;;1.10;0.30;;;;;;;;;;4990604;28;20038;-68
2023/12/23 06:09:39;;;;;;;1.38;0.98;;;;;;;;;;4988881;28;20108;-68
2023/12/23 06:12:05;;;;;;;1.73;1.52;;;;;;;;;;4995434;28;20042;-67
2023/12/23 06:14:31;;;;;;;2.45;0.95;;;;;;;;;;4985913;28;20050;-69
2023/12/23 06:16:57;;;;;;;2.95;0.20;;;;;;;;;;4988474;28;20112;-68
2023/12/23 06:19:23;;;;;;;0.43;0.30;;;;;;;;;;4987016;28;20513;-67
2023/12/23 06:21:49;;;;;;;0.45;0.25;;;;;;;;;;4987154;28;20473;-69
2023/12/23 06:24:15;;;;;;;4.45;2.22;;;;;;;;;;4984759;28;20429;-68
2023/12/23 06:26:41;;;;;;;12.18;2.42;;;;;;;;;;4971869;28;20110;-69
2023/12/23 06:29:07;;;;;;;0.80;0.60;;;;;;;;;;4980393;28;20047;-69
2023/12/23 06:31:33;;;;;;;4.75;1.13;;;;;;;;;;4977205;28;20041;-69
2023/12/23 06:34:00;;;;;;;1.38;0.98;;;;;;;;;;4991466;28;20133;-69
2023/12/23 06:36:26;;;;;;;8.07;2.25;;;;;;;;;;4982718;28;20046;-72
2023/12/23 06:38:51;;;;;;;22.50;2.78;;;;;;;;;;4978115;28;20098;-73
2023/12/23 06:41:17;;;;;;;4.47;2.40;;;;;;;;;;4970306;28;20418;-71
2023/12/23 06:43:43;;;;;;;5.47;1.70;;;;;;;;;;4984938;28;20514;-73
2023/12/23 06:46:10;;;;;;;2.60;0.93;;;;;;;;;;4982234;28;20042;-74
2023/12/23 06:48:36;;;;;;;1.08;0.40;;;;;;;;;;4985743;28;20042;-73
2023/12/23 06:51:03;;;;;;;8.88;2.47;;;;;;;;;;4984418;28;20042;-73
2023/12/23 06:53:29;;;;;;;6.80;1.60;;;;;;;;;;4982879;28;20042;-72
2023/12/23 06:55:55;;;;;;;15.43;3.47;;;;;;;;;;4987439;28;20033;-72
2023/12/23 06:58:23;;;;;;;11.95;2.72;;;;;;;;;;4993303;28;20431;-73
2023/12/23 07:00:49;;;;;;;0.95;0.50;;;;;;;;;;4986784;28;20034;-72
2023/12/23 07:03:15;;;;;;;2.83;0.68;;;;;;;;;;4974226;28;20035;-72
2023/12/23 07:05:41;;;;;;;3.60;0.20;;;;;;;;;;4970150;28;20043;-71
2023/12/23 07:08:07;;;;;;;0.35;0.32;;;;;;;;;;4978897;28;20097;-73
2023/12/23 07:10:33;;;;;;;1.17;0.50;;;;;;;;;;4982308;28;20037;-73
2023/12/23 07:12:59;;;;;;;0.00;0.00;;;;;;;;;;4973119;28;20034;-72
2023/12/23 07:15:24;;;;;;;0.22;0.22;;;;;;;;;;4987658;28;20039;-73
2023/12/23 07:17:50;;;;;;;1.23;0.40;;;;;;;;;;4989938;28;20043;-71
2023/12/23 07:20:16;;;;;;;4.28;1.50;;;;;;;;;;4984333;28;20079;-72
2023/12/23 07:22:42;;;;;;;6.57;0.75;;;;;;;;;;4966844;28;20039;-73
2023/12/23 07:25:08;;;;;;;1.20;1.08;;;;;;;;;;4967720;28;20038;-69
2023/12/23 07:27:34;;;;;;;0.00;0.00;;;;;;;;;;4977536;28;20030;-69
2023/12/23 07:30:00;;;;;;;0.40;0.40;;;;;;;;;;4981536;28;20049;-70
2023/12/23 07:32:26;;;;;;;7.28;1.27;;;;;;;;;;4990878;28;20066;-69
2023/12/23 07:34:52;;;;;;;4.38;0.20;;;;;;;;;;4982778;28;20046;-73
2023/12/23 07:37:18;;;;;;;1.88;1.05;;;;;;;;;;4984171;28;20039;-72
2023/12/23 07:39:44;;;;;;;2.13;1.27;;;;;;;;;;4973504;28;20065;-72
2023/12/23 07:42:10;;;;;;;0.20;0.20;;;;;;;;;;4967004;28;20394;-72
2023/12/23 07:44:39;;;;;;;0.00;0.00;;;;;;;;;;4963822;28;20059;-69
2023/12/23 07:47:05;;;;;;;0.70;0.63;;;;;;;;;;4953696;28;20812;-69
2023/12/23 07:49:32;;;;;;;0.68;0.47;;;;;;;;;;4968928;28;20339;-70
2023/12/23 07:51:58;;;;;;;4.70;0.80;;;;;;;;;;4977073;28;20129;-69
2023/12/23 07:54:25;;;;;;;5.15;0.85;;;;;;;;;;4980319;28;20045;-68
2023/12/23 07:56:51;;;;;;;0.17;0.15;;;;;;;;;;4981362;28;20046;-67
2023/12/23 07:59:17;;;;;;;1.05;0.57;;;;;;;;;;4983361;28;20045;-68
2023/12/23 08:01:44;;;;;;;1.45;0.75;;;;;;;;;;4985575;28;20041;-68
2023/12/23 08:04:10;;;;;;;0.32;0.32;;;;;;;;;;4988560;28;20068;-69
2023/12/23 08:06:36;;;;;;;0.28;0.28;;;;;;;;;;4980946;28;20129;-69
2023/12/23 08:09:02;;;;;;;0.05;0.05;;;;;;;;;;4980854;28;20601;-68
2023/12/23 08:11:29;;;;;;;1.65;0.52;;;;;;;;;;4982465;28;20083;-68
2023/12/23 08:13:55;;;;;;;7.28;0.95;;;;;;;;;;4978074;28;20042;-69
2023/12/23 08:16:21;;;;;;;3.83;1.50;;;;;;;;;;4984748;28;20061;-67
2023/12/23 08:18:47;;;;;;;0.80;0.63;;;;;;;;;;4983051;28;20049;-69
2023/12/23 08:21:13;;;;;;;3.33;0.40;;;;;;;;;;4980412;28;20042;-69
2023/12/23 08:23:39;;;;;;;3.85;0.80;;;;;;;;;;4986366;28;20038;-68
2023/12/23 08:26:05;;;;;;;1.58;0.68;;;;;;;;;;4981817;28;20046;-68
2023/12/23 08:28:31;;;;;;;0.93;0.50;;;;;;;;;;4987160;28;20041;-68
2023/12/23 08:30:57;;;;;;;0.43;0.40;;;;;;;;;;4979563;28;20046;-68
2023/12/23 08:33:23;;;;;;;2.45;1.00;;;;;;;;;;4978970;28;20145;-68
2023/12/23 08:35:49;;;;;;;2.45;0.73;;;;;;;;;;4986096;28;20380;-69
2023/12/23 08:38:15;;;;;;;0.20;0.20;;;;;;;;;;4974852;28;20430;-69
2023/12/23 08:40:41;;;;;;;0.10;0.10;;;;;;;;;;4978748;28;20049;-68
2023/12/23 08:43:07;;;;;;;2.00;0.45;;;;;;;;;;4983732;28;20437;-68
2023/12/23 08:45:33;;;;;;;0.45;0.45;;;;;;;;;;4981936;28;20049;-68
2023/12/23 08:47:59;;;;;;;0.20;0.20;;;;;;;;;;4982490;28;20816;-68
2023/12/23 08:50:25;;;;;;;1.48;0.50;;;;;;;;;;4981168;28;20098;-68
2023/12/23 08:52:51;;;;;;;0.00;0.00;;;;;;;;;;4982753;28;20034;-68
2023/12/23 08:55:18;;;;;;;8.05;1.20;;;;;;;;;;4970963;28;20061;-71
2023/12/23 08:57:44;;;;;;;4.85;0.55;;;;;;;;;;4967179;28;20058;-72
2023/12/23 09:00:10;;;;;;;0.10;0.10;;;;;;;;;;4974600;28;20069;-72
2023/12/23 09:02:36;;;;;;;2.53;0.35;;;;;;;;;;4970218;28;20045;-72
2023/12/23 09:05:02;;;;;;;0.00;0.00;;;;;;;;;;4980741;28;20485;-72
2023/12/23 09:07:28;;;;;;;0.00;0.00;;;;;;;;;;4980393;28;20045;-72
2023/12/23 09:09:54;;;;;;;11.30;0.47;;;;;;;;;;4978083;28;20144;-73
2023/12/23 09:12:20;;;;;;;1.00;0.43;;;;;;;;;;4971449;28;20704;-72
2023/12/23 09:14:49;;;;;;;0.22;0.17;;;;;;;;;;4963044;28;20403;-72
2023/12/23 09:17:15;;;;;;;1.73;0.85;;;;;;;;;;4960842;28;20179;-72
2023/12/23 09:19:40;;;;;;;1.27;0.43;;;;;;;;;;4969723;28;20039;-73
2023/12/23 09:22:07;;;;;;;0.10;0.10;;;;;;;;;;4978255;28;20026;-72
2023/12/23 09:24:33;;;;;;;1.90;0.25;;;;;;;;;;4979418;28;20129;-72
2023/12/23 09:26:59;;;;;;;0.57;0.43;;;;;;;;;;4969680;28;20164;-72
2023/12/23 09:29:25;;;;;;;0.10;0.10;;;;;;;;;;4960807;28;20046;-72
2023/12/23 09:31:50;;;;;;;0.98;0.45;;;;;;;;;;4971912;28;20190;-72
2023/12/23 09:34:16;;;;;;;0.13;0.13;;;;;;;;;;4980452;28;20046;-71
2023/12/23 09:36:42;;;;;;;0.00;0.00;;;;;;;;;;4966189;28;20039;-72
2023/12/23 09:39:08;;;;;;;1.75;0.30;;;;;;;;;;4964721;28;20153;-73
2023/12/23 09:41:35;;;;;;;0.28;0.28;;;;;;;;;;4960371;28;20093;-73
2023/12/23 09:44:01;;;;;;;0.60;0.22;;;;;;;;;;4964427;28;20031;-72
2023/12/23 09:46:27;;;;;;;2.30;0.60;;;;;;;;;;4962291;28;20037;-73
2023/12/23 09:48:53;;;;;;;0.52;0.13;;;;;;;;;;4982630;28;20436;-72
2023/12/23 09:51:24;;;;;;;0.20;0.20;;;;;;;;;;4984139;28;20511;-71
2023/12/23 09:53:51;;;;;;;1.70;0.57;;;;;;;;;;4985723;28;20038;-72
2023/12/23 09:56:17;;;;;;;2.83;0.80;;;;;;;;;;4984517;28;20222;-72
2023/12/23 09:58:44;;;;;;;4.15;0.65;;;;;;;;;;4981124;28;20156;-73
2023/12/23 10:01:10;;;;;;;5.18;0.35;;;;;;;;;;4982446;28;20039;-73
2023/12/23 10:03:36;;;;;;;1.48;0.45;;;;;;;;;;4987951;28;20519;-72
2023/12/23 10:06:02;;;;;;;3.53;1.33;;;;;;;;;;4981187;28;20041;-70
2023/12/23 10:08:31;;;;;;;0.35;0.20;;;;;;;;;;4989208;28;20069;-69
2023/12/23 10:10:57;;;;;;;3.45;0.40;;;;;;;;;;4984557;28;20505;-69
2023/12/23 10:13:23;;;;;;;0.30;0.30;;;;;;;;;;4990155;28;20033;-69
2023/12/23 10:15:48;;;;;;;0.32;0.20;;;;;;;;;;4993178;28;20124;-71
2023/12/23 10:18:14;;;;;;;0.00;0.00;;;;;;;;;;4982809;28;20058;-70
2023/12/23 10:20:43;;;;;;;2.75;0.40;;;;;;;;;;4987393;28;20030;-69
2023/12/23 10:23:09;;;;;;;0.03;0.03;;;;;;;;;;4987826;28;20092;-68
2023/12/23 10:25:35;;;;;;;0.03;0.00;;;;;;;;;;4984764;28;20799;-70
2023/12/23 10:28:05;;;;;;;0.00;0.00;;;;;;;;;;4985384;28;20034;-69
2023/12/23 10:30:33;;;;;;;0.10;0.10;;;;;;;;;;4983109;28;20318;-69
2023/12/23 10:33:05;;;;;;;1.00;0.52;;;;;;;;;;4984936;28;20121;-70
2023/12/23 10:35:33;;;;;;;1.77;0.10;;;;;;;;;;4972373;28;20434;-70
2023/12/23 10:38:02;;;;;;;2.67;0.93;;;;;;;;;;4980102;28;20057;-69
2023/12/23 10:40:29;;;;;;;3.05;0.68;;;;;;;;;;4986059;28;20510;-70
2023/12/23 10:42:58;;;;;;;4.75;1.15;;;;;;;;;;4981486;28;20115;-70
2023/12/23 10:45:24;;;;;;;6.63;2.50;;;;;;;;;;4982314;28;20076;-69
2023/12/23 10:47:51;;;;;;;1.05;0.82;;;;;;;;;;4985149;28;20044;-69
2023/12/23 10:50:17;;;;;;;0.52;0.47;;;;;;;;;;4987438;28;20038;-71
2023/12/23 10:52:43;;;;;;;5.57;1.63;;;;;;;;;;4984548;28;20095;-70
2023/12/23 10:55:12;;;;;;;1.17;0.45;;;;;;;;;;4985722;28;20701;-71
2023/12/23 10:57:40;;;;;;;3.40;1.30;;;;;;;;;;4977831;28;20047;-70
2023/12/23 11:00:07;;;;;;;0.00;0.00;;;;;;;;;;4983633;28;20387;-69
2023/12/23 11:02:37;;;;;;;2.55;0.90;;;;;;;;;;4970709;28;20049;-69
2023/12/23 11:05:07;;;;;;;0.50;0.40;;;;;;;;;;4960796;28;20140;-70
2023/12/23 11:07:36;;;;;;;0.35;0.22;;;;;;;;;;4965745;28;20594;-70
2023/12/23 11:10:03;;;;;;;0.65;0.45;;;;;;;;;;4962424;28;20054;-71
2023/12/23 11:12:29;;;;;;;3.50;0.95;;;;;;;;;;4962969;28;20050;-69
2023/12/23 11:14:56;;;;;;;0.17;0.17;;;;;;;;;;4969885;28;20042;-69
2023/12/23 11:17:26;;;;;;;0.00;0.00;;;;;;;;;;4986323;28;20041;-70
2023/12/23 11:19:55;;;;;;;0.00;0.00;;;;;;;;;;4998745;28;20096;-69
2023/12/23 11:22:22;;;;;;;0.00;0.00;;;;;;;;;;4977701;28;20051;-69
2023/12/23 11:24:48;;;;;;;0.88;0.50;;;;;;;;;;4981077;28;20954;-73
2023/12/23 11:27:33;;;;;;;3.45;0.40;;;;;;;;;;4985114;28;20070;-74
2023/12/23 11:30:00;;;;;;;1.05;0.20;;;;;;;;;;4975699;28;20058;-74
2023/12/23 11:32:31;;;;;;;0.00;0.00;;;;;;;;;;4967886;28;20049;-74
2023/12/23 11:34:58;;;;;;;1.30;0.28;;;;;;;;;;4979032;28;20577;-70
2023/12/23 11:37:44;;;;;;;3.53;1.17;;;;;;;;;;4976337;28;21328;-70
2023/12/23 11:40:11;;;;;;;0.52;0.43;;;;;;;;;;4960473;28;20556;-69
2023/12/23 11:42:37;;;;;;;4.47;0.25;;;;;;;;;;4970012;28;20030;-69
2023/12/23 11:45:03;;;;;;;5.57;0.90;;;;;;;;;;4963836;28;20545;-69
2023/12/23 11:47:29;;;;;;;0.00;0.00;;;;;;;;;;4965803;28;20068;-70
2023/12/23 11:49:55;;;;;;;1.38;0.08;;;;;;;;;;4980840;28;20038;-71
2023/12/23 11:52:21;;;;;;;0.20;0.10;;;;;;;;;;4979125;28;20710;-69
2023/12/23 11:54:48;;;;;;;0.20;0.10;;;;;;;;;;4966875;28;20042;-71
2023/12/23 11:57:15;;;;;;;1.23;0.90;;;;;;;;;;4980817;28;20049;-70
2023/12/23 11:59:41;;;;;;;2.20;0.30;;;;;;;;;;4968446;28;20026;-69
2023/12/23 12:02:09;;;;;;;0.08;0.05;;;;;;;;;;4950120;28;20031;-70
2023/12/23 12:04:35;;;;;;;0.00;0.00;;;;;;;;;;4962781;28;20047;-69
2023/12/23 12:07:01;;;;;;;0.82;0.52;;;;;;;;;;4971788;28;20034;-70
2023/12/23 12:09:28;;;;;;;0.40;0.10;;;;;;;;;;4985177;28;20407;-69
2023/12/23 12:11:53;;;;;;;0.70;0.30;;;;;;;;;;4981839;28;20046;-68
2023/12/23 12:14:19;;;;;;;0.10;0.10;;;;;;;;;;4983964;28;20042;-69
2023/12/23 12:16:45;;;;;;;0.38;0.10;;;;;;;;;;4985611;28;20038;-69
2023/12/23 12:19:13;;;;;;;0.63;0.30;;;;;;;;;;4982757;28;20101;-69
2023/12/23 12:21:39;;;;;;;0.00;0.00;;;;;;;;;;4983067;28;20032;-69
2023/12/23 12:24:06;;;;;;;0.45;0.45;;;;;;;;;;4987079;28;20042;-69
2023/12/23 12:26:32;;;;;;;0.00;0.00;;;;;;;;;;4989807;28;20578;-69
2023/12/23 12:28:58;;;;;;;1.27;0.55;;;;;;;;;;4978855;28;20038;-69
2023/12/23 12:31:24;;;;;;;1.45;0.63;;;;;;;;;;4984560;28;20117;-68
2023/12/23 12:33:50;;;;;;;1.65;0.10;;;;;;;;;;4979334;28;20133;-70
2023/12/23 12:36:17;;;;;;;0.00;0.00;;;;;;;;;;4978600;28;20038;-68
2023/12/23 12:38:43;;;;;;;0.25;0.10;;;;;;;;;;4980003;28;20461;-68
2023/12/23 12:41:10;;;;;;;2.20;0.80;;;;;;;;;;4973121;28;20172;-69
2023/12/23 12:43:42;;;;;;;2.55;0.20;;;;;;;;;;4979789;28;20058;-69
2023/12/23 12:46:09;;;;;;;0.10;0.00;;;;;;;;;;4976647;28;20097;-68
2023/12/23 12:48:35;;;;;;;0.10;0.10;;;;;;;;;;4983755;28;20281;-69
2023/12/23 12:51:01;;;;;;;1.88;0.08;;;;;;;;;;4981184;28;20038;-69
2023/12/23 12:53:28;;;;;;;0.98;0.25;;;;;;;;;;4979616;28;20085;-68
2023/12/23 12:55:54;;;;;;;5.15;0.52;;;;;;;;;;4984018;28;20026;-71
2023/12/23 12:58:21;;;;;;;5.60;0.40;;;;;;;;;;4990778;28;20046;-71
2023/12/23 13:00:47;;;;;;;3.92;0.93;;;;;;;;;;4991052;28;20386;-72
2023/12/23 13:03:13;;;;;;;0.20;0.10;;;;;;;;;;4990628;28;20569;-71
2023/12/23 13:05:39;;;;;;;0.00;0.00;;;;;;;;;;4987112;28;20125;-71
2023/12/23 13:08:06;;;;;;;0.22;0.00;;;;;;;;;;4987480;28;20046;-71
2023/12/23 13:10:32;;;;;;;0.22;0.22;;;;;;;;;;4987591;28;20046;-71
2023/12/23 13:12:58;;;;;;;0.25;0.10;;;;;;;;;;4982924;28;20042;-72
2023/12/23 13:15:24;;;;;;;0.00;0.00;;;;;;;;;;4982894;28;20836;-72
2023/12/23 13:17:51;;;;;;;4.57;0.40;;;;;;;;;;4997231;28;20382;-71
2023/12/23 13:20:17;;;;;;;0.45;0.10;;;;;;;;;;4978148;28;20056;-72
2023/12/23 13:22:43;;;;;;;0.10;0.10;;;;;;;;;;4966564;28;20405;-71
2023/12/23 13:25:09;;;;;;;0.15;0.15;;;;;;;;;;4960260;28;20481;-71
2023/12/23 13:27:35;;;;;;;0.65;0.52;;;;;;;;;;4972631;28;20045;-71
2023/12/23 13:30:01;;;;;;;1.30;0.20;;;;;;;;;;4973841;28;20692;-71
2023/12/23 13:32:27;;;;;;;0.63;0.45;;;;;;;;;;4978932;28;20482;-70
2023/12/23 13:34:54;;;;;;;0.10;0.10;;;;;;;;;;4979148;28;20045;-67
2023/12/23 13:37:20;;;;;;;0.00;0.00;;;;;;;;;;4995978;28;20392;-67
2023/12/23 13:39:46;;;;;;;0.08;0.08;;;;;;;;;;4977404;28;20035;-67
2023/12/23 13:42:12;;;;;;;0.00;0.00;;;;;;;;;;4977635;28;20041;-67
2023/12/23 13:44:38;;;;;;;2.83;0.22;;;;;;;;;;4975526;28;20053;-69
2023/12/23 13:47:05;;;;;;;0.95;0.40;;;;;;;;;;4977873;28;20405;-70
2023/12/23 13:49:31;;;;;;;0.00;0.00;;;;;;;;;;4982217;28;20042;-69
2023/12/23 13:51:57;;;;;;;0.17;0.10;;;;;;;;;;4982121;28;20081;-68
2023/12/23 13:54:23;;;;;;;1.40;0.50;;;;;;;;;;4961075;28;20034;-67
2023/12/23 13:56:52;;;;;;;0.10;0.10;;;;;;;;;;4976102;28;20038;-67
2023/12/23 13:59:18;;;;;;;15.00;2.50;;;;;;;;;;4979199;28;20086;-67
2023/12/23 14:01:44;;;;;;;0.00;0.00;;;;;;;;;;4970794;28;20524;-68
2023/12/23 14:04:10;;;;;;;0.10;0.10;;;;;;;;;;4989984;28;20065;-69
2023/12/23 14:06:36;;;;;;;1.38;0.15;;;;;;;;;;4983929;28;20038;-67
2023/12/23 14:09:03;;;;;;;5.82;0.40;;;;;;;;;;4980444;28;20038;-67
2023/12/23 14:11:29;;;;;;;0.43;0.43;;;;;;;;;;4981934;28;20052;-68
2023/12/23 14:13:55;;;;;;;3.00;0.60;;;;;;;;;;4982616;28;20153;-69
2023/12/23 14:16:21;;;;;;;0.00;0.00;;;;;;;;;;4977447;28;20076;-69
2023/12/23 14:18:47;;;;;;;0.45;0.28;;;;;;;;;;4981967;28;20034;-67
2023/12/23 14:21:13;;;;;;;0.17;0.08;;;;;;;;;;4969759;28;20036;-67
2023/12/23 14:23:39;;;;;;;2.53;0.52;;;;;;;;;;4974934;28;20067;-68
2023/12/23 14:26:05;;;;;;;0.10;0.10;;;;;;;;;;4976036;28;20134;-72
2023/12/23 14:28:34;;;;;;;0.32;0.22;;;;;;;;;;4972956;28;20039;-73
2023/12/23 14:31:00;;;;;;;0.30;0.10;;;;;;;;;;4974292;28;20082;-74
2023/12/23 14:33:26;;;;;;;4.38;0.35;;;;;;;;;;4972040;28;20146;-73
2023/12/23 14:35:52;;;;;;;2.72;0.55;;;;;;;;;;4971676;28;20105;-74
2023/12/23 14:38:18;;;;;;;0.63;0.25;;;;;;;;;;4971096;28;21310;-72